createdAt,value
2023-09-03T00:00:39.276Z,15.00
2023-09-03T00:03:07.021Z,14.90
2023-09-03T00:05:35.396Z,14.90
2023-09-03T00:08:02.471Z,14.90
2023-09-03T00:10:29.344Z,14.80
2023-09-03T00:12:56.234Z,14.80
2023-09-03T00:15:25.090Z,14.80
2023-09-03T00:17:52.639Z,14.80
2023-09-03T00:20:19.525Z,14.80
2023-09-03T00:22:46.452Z,14.80
2023-09-03T00:25:13.305Z,14.90
2023-09-03T00:27:40.177Z,14.90
2023-09-03T00:30:07.757Z,14.90
2023-09-03T00:32:34.634Z,14.80
2023-09-03T00:35:02.323Z,14.80
2023-09-03T00:37:29.185Z,14.80
2023-09-03T00:39:56.012Z,14.70
2023-09-03T00:42:23.846Z,14.70
2023-09-03T00:44:50.709Z,14.70
2023-09-03T00:47:21.083Z,14.70
2023-09-03T00:49:47.963Z,14.70
2023-09-03T00:52:14.972Z,14.70
2023-09-03T00:54:42.480Z,14.70
2023-09-03T00:57:09.400Z,14.70
2023-09-03T00:59:36.378Z,14.70
2023-09-03T01:02:03.324Z,14.70
2023-09-03T01:04:30.570Z,14.70
2023-09-03T01:06:57.425Z,14.70
2023-09-03T01:09:24.584Z,14.70
2023-09-03T01:12:12.078Z,14.70
2023-09-03T01:14:51.328Z,14.70
2023-09-03T01:17:47.887Z,14.60
2023-09-03T01:20:23.070Z,14.60
2023-09-03T01:23:39.798Z,14.60
2023-09-03T01:26:25.255Z,14.60
2023-09-03T01:28:53.513Z,14.60
2023-09-03T01:31:21.016Z,14.60
2023-09-03T01:33:49.362Z,14.60
2023-09-03T01:36:17.795Z,14.60
2023-09-03T01:38:44.798Z,14.60
2023-09-03T01:41:11.819Z,14.70
2023-09-03T01:43:38.744Z,14.80
2023-09-03T01:46:09.845Z,14.80
2023-09-03T01:48:42.366Z,14.80
2023-09-03T01:51:37.992Z,14.80
2023-09-03T01:54:26.419Z,14.80
2023-09-03T01:57:05.751Z,14.80
2023-09-03T01:59:55.129Z,14.80
2023-09-03T02:02:23.097Z,14.80
2023-09-03T02:04:51.176Z,14.70
2023-09-03T02:07:18.701Z,14.70
2023-09-03T02:09:45.545Z,14.70
2023-09-03T02:12:12.395Z,14.60
2023-09-03T02:14:39.463Z,14.60
2023-09-03T02:17:06.853Z,14.60
2023-09-03T02:19:33.777Z,14.60
2023-09-03T02:22:00.571Z,14.60
2023-09-03T02:24:27.432Z,14.60
2023-09-03T02:26:54.254Z,14.60
2023-09-03T02:29:21.087Z,14.60
2023-09-03T02:31:49.419Z,14.60
2023-09-03T02:34:16.469Z,14.60
2023-09-03T02:36:43.911Z,14.50
2023-09-03T02:39:10.810Z,14.50
2023-09-03T02:41:37.686Z,14.50
2023-09-03T02:44:04.748Z,14.50
2023-09-03T02:46:31.680Z,14.50
2023-09-03T02:48:59.858Z,14.50
2023-09-03T02:51:26.718Z,14.50
2023-09-03T02:53:56.022Z,14.40
2023-09-03T02:56:24.022Z,14.40
2023-09-03T02:58:51.764Z,14.40
2023-09-03T03:01:20.481Z,14.40
2023-09-03T03:03:48.524Z,14.30
2023-09-03T03:06:16.012Z,14.30
2023-09-03T03:08:43.610Z,14.20
2023-09-03T03:11:12.881Z,14.20
2023-09-03T03:13:44.502Z,14.20
2023-09-03T03:16:16.092Z,14.20
2023-09-03T03:18:46.850Z,14.20
2023-09-03T03:21:23.541Z,14.10
2023-09-03T03:23:55.824Z,14.10
2023-09-03T03:26:32.478Z,14.10
2023-09-03T03:28:59.649Z,14.10
2023-09-03T03:31:27.525Z,14.00
2023-09-03T03:33:56.963Z,14.00
2023-09-03T03:36:26.891Z,14.00
2023-09-03T03:38:53.791Z,14.00
2023-09-03T03:41:21.288Z,13.90
2023-09-03T03:43:53.370Z,13.90
2023-09-03T03:46:23.212Z,13.90
2023-09-03T03:48:53.983Z,13.90
2023-09-03T03:51:21.345Z,13.90
2023-09-03T03:53:50.210Z,13.90
2023-09-03T03:56:18.268Z,13.90
2023-09-03T03:58:46.534Z,13.90
2023-09-03T04:01:21.589Z,13.90
2023-09-03T04:03:51.017Z,13.90
2023-09-03T04:06:18.636Z,13.80
2023-09-03T04:08:46.813Z,13.90
2023-09-03T04:11:15.506Z,13.90
2023-09-03T04:13:42.622Z,13.90
2023-09-03T04:16:15.433Z,13.90
2023-09-03T04:18:44.408Z,13.90
2023-09-03T04:21:11.758Z,13.90
2023-09-03T04:23:39.697Z,13.90
2023-09-03T04:26:07.184Z,13.80
2023-09-03T04:28:39.105Z,13.80
2023-09-03T04:31:09.521Z,13.80
2023-09-03T04:33:39.002Z,13.80
2023-09-03T04:36:08.118Z,13.90
2023-09-03T04:38:36.294Z,13.80
2023-09-03T04:41:05.749Z,13.80
2023-09-03T04:44:06.636Z,13.80
2023-09-03T04:46:34.661Z,13.70
2023-09-03T04:49:03.156Z,13.70
2023-09-03T04:51:30.603Z,13.70
2023-09-03T04:53:57.587Z,13.70
2023-09-03T04:56:25.100Z,13.70
2023-09-03T04:58:54.016Z,13.70
2023-09-03T05:01:21.141Z,13.70
2023-09-03T05:03:51.538Z,13.70
2023-09-03T05:06:20.909Z,13.70
2023-09-03T05:08:50.816Z,13.70
2023-09-03T05:11:19.990Z,13.70
2023-09-03T05:13:48.220Z,13.70
2023-09-03T05:16:16.939Z,13.70
2023-09-03T05:18:44.413Z,13.80
2023-09-03T05:21:12.309Z,13.80
2023-09-03T05:23:39.814Z,13.80
2023-09-03T05:26:07.461Z,13.80
2023-09-03T05:28:36.743Z,13.90
2023-09-03T05:31:03.845Z,14.00
2023-09-03T05:33:32.346Z,14.10
2023-09-03T05:35:59.466Z,14.10
2023-09-03T05:38:26.670Z,14.30
2023-09-03T05:40:53.971Z,14.40
2023-09-03T05:43:23.150Z,14.50
2023-09-03T05:45:53.662Z,14.50
2023-09-03T05:48:21.191Z,14.60
2023-09-03T05:50:48.332Z,14.70
2023-09-03T05:53:15.316Z,14.80
2023-09-03T05:55:43.895Z,14.90
2023-09-03T05:58:10.909Z,15.00
2023-09-03T06:00:44.324Z,15.10
2023-09-03T06:03:12.134Z,15.10
2023-09-03T06:05:39.315Z,15.20
2023-09-03T06:08:06.555Z,15.30
2023-09-03T06:10:34.085Z,15.40
2023-09-03T06:13:01.070Z,15.50
2023-09-03T06:15:28.017Z,15.50
2023-09-03T06:17:55.318Z,15.60
2023-09-03T06:20:22.353Z,15.70
2023-09-03T06:22:49.297Z,15.80
2023-09-03T06:25:16.331Z,15.90
2023-09-03T06:27:43.196Z,16.00
2023-09-03T06:30:11.088Z,16.10
2023-09-03T06:32:38.511Z,16.30
2023-09-03T06:35:06.395Z,16.40
2023-09-03T06:37:33.326Z,16.50
2023-09-03T06:40:00.358Z,16.60
2023-09-03T06:42:28.814Z,16.80
2023-09-03T06:44:55.749Z,16.90
2023-09-03T06:47:22.726Z,17.10
2023-09-03T06:49:53.315Z,17.20
2023-09-03T06:52:20.902Z,17.40
2023-09-03T06:54:48.637Z,17.60
2023-09-03T06:57:28.152Z,17.70
2023-09-03T06:59:56.515Z,17.90
2023-09-03T07:02:24.298Z,18.10
2023-09-03T07:04:51.579Z,18.30
2023-09-03T07:07:18.633Z,18.50
2023-09-03T07:09:45.618Z,18.60
2023-09-03T07:12:12.529Z,18.80
2023-09-03T07:14:39.486Z,19.00
2023-09-03T07:17:06.442Z,19.10
2023-09-03T07:19:33.398Z,19.30
2023-09-03T07:22:00.674Z,19.40
2023-09-03T07:24:27.566Z,19.60
2023-09-03T07:26:54.979Z,19.70
2023-09-03T07:29:22.048Z,19.80
2023-09-03T07:31:49.006Z,19.90
2023-09-03T07:34:16.265Z,20.10
2023-09-03T07:36:43.580Z,20.20
2023-09-03T07:39:11.363Z,20.40
2023-09-03T07:41:39.511Z,20.60
2023-09-03T07:44:07.028Z,20.80
2023-09-03T07:46:34.265Z,20.90
2023-09-03T07:49:01.329Z,21.10
2023-09-03T07:51:28.187Z,21.40
2023-09-03T07:53:55.358Z,21.70
2023-09-03T07:56:22.341Z,22.10
2023-09-03T07:58:49.373Z,22.40
2023-09-03T08:01:17.961Z,22.70
2023-09-03T08:03:45.419Z,22.90
2023-09-03T08:06:14.821Z,23.00
2023-09-03T08:08:41.942Z,23.10
2023-09-03T08:11:09.102Z,23.30
2023-09-03T08:13:37.031Z,23.50
2023-09-03T08:16:04.276Z,23.80
2023-09-03T08:18:31.193Z,24.20
2023-09-03T08:20:58.657Z,24.70
2023-09-03T08:23:25.801Z,25.20
2023-09-03T08:25:52.688Z,25.60
2023-09-03T08:28:19.664Z,26.20
2023-09-03T08:30:48.411Z,26.50
2023-09-03T08:33:15.571Z,26.90
2023-09-03T08:35:42.542Z,27.30
2023-09-03T08:38:09.508Z,27.60
2023-09-03T08:40:38.073Z,27.90
2023-09-03T08:43:08.965Z,28.20
2023-09-03T08:45:53.403Z,28.50
2023-09-03T08:48:20.361Z,28.60
2023-09-03T08:50:47.762Z,28.80
2023-09-03T08:53:15.898Z,29.10
2023-09-03T08:55:43.691Z,29.40
2023-09-03T08:58:10.810Z,29.70
2023-09-03T09:00:38.473Z,29.90
2023-09-03T09:03:08.079Z,30.10
2023-09-03T09:05:37.070Z,30.10
2023-09-03T09:08:05.704Z,30.00
2023-09-03T09:10:34.467Z,30.00
2023-09-03T09:13:06.633Z,30.10
2023-09-03T09:15:37.334Z,30.30
2023-09-03T09:18:11.378Z,30.40
2023-09-03T09:20:42.568Z,30.50
2023-09-03T09:23:09.935Z,30.70
2023-09-03T09:25:37.303Z,30.80
2023-09-03T09:28:12.420Z,31.00
2023-09-03T09:30:53.345Z,31.20
2023-09-03T09:33:21.056Z,31.30
2023-09-03T09:35:48.424Z,31.40
2023-09-03T09:38:15.905Z,31.50
2023-09-03T09:40:42.896Z,31.70
2023-09-03T09:43:10.288Z,31.90
2023-09-03T09:45:50.805Z,32.00
2023-09-03T09:48:17.864Z,32.10
2023-09-03T09:50:46.125Z,32.30
2023-09-03T09:53:24.996Z,32.50
2023-09-03T09:56:02.691Z,32.90
2023-09-03T09:58:40.260Z,33.10
2023-09-03T10:01:08.316Z,33.30
2023-09-03T10:03:43.101Z,33.30
2023-09-03T10:06:10.397Z,33.50
2023-09-03T10:08:37.985Z,33.70
2023-09-03T10:11:04.958Z,33.90
2023-09-03T10:13:35.106Z,34.20
2023-09-03T10:16:05.231Z,34.40
2023-09-03T10:18:51.693Z,34.60
2023-09-03T10:21:23.343Z,34.30
2023-09-03T10:23:52.853Z,33.70
2023-09-03T10:26:35.689Z,33.20
2023-09-03T10:29:07.037Z,32.70
2023-09-03T10:31:36.983Z,32.40
2023-09-03T10:34:08.628Z,32.30
2023-09-03T10:36:35.518Z,32.60
2023-09-03T10:39:23.281Z,33.00
2023-09-03T10:42:16.174Z,33.40
2023-09-03T10:44:44.385Z,33.40
2023-09-03T10:47:15.218Z,33.60
2023-09-03T10:49:43.322Z,33.40
2023-09-03T10:52:29.415Z,33.40
2023-09-03T10:55:16.762Z,33.10
2023-09-03T10:57:45.831Z,32.80
2023-09-03T11:00:22.733Z,32.90
2023-09-03T11:02:51.188Z,33.30
2023-09-03T11:05:21.239Z,33.40
2023-09-03T11:07:50.422Z,33.50
2023-09-03T11:10:28.904Z,33.10
2023-09-03T11:12:57.225Z,32.80
2023-09-03T11:15:24.118Z,32.50
2023-09-03T11:17:55.976Z,32.10
2023-09-03T11:20:48.321Z,31.80
2023-09-03T11:23:18.177Z,31.90
2023-09-03T11:25:45.996Z,32.10
2023-09-03T11:28:14.058Z,32.20
2023-09-03T11:30:41.671Z,32.10
2023-09-03T11:33:11.719Z,31.80
2023-09-03T11:35:47.847Z,31.50
2023-09-03T11:38:14.941Z,31.30
2023-09-03T11:40:41.961Z,31.60
2023-09-03T11:43:10.802Z,32.00
2023-09-03T11:45:38.496Z,32.50
2023-09-03T11:48:09.437Z,32.90
2023-09-03T11:50:36.592Z,33.20
2023-09-03T11:53:06.676Z,33.40
2023-09-03T11:55:38.766Z,33.70
2023-09-03T11:58:09.140Z,34.00
2023-09-03T12:00:37.478Z,34.00
2023-09-03T12:03:05.613Z,34.00
2023-09-03T12:05:36.048Z,33.90
2023-09-03T12:08:07.314Z,33.70
2023-09-03T12:10:34.898Z,33.70
2023-09-03T12:13:03.250Z,33.80
2023-09-03T12:15:32.384Z,34.00
2023-09-03T12:18:10.334Z,34.20
2023-09-03T12:20:40.050Z,34.20
2023-09-03T12:23:07.740Z,33.70
2023-09-03T12:25:35.815Z,33.30
2023-09-03T12:28:03.175Z,33.20
2023-09-03T12:30:57.561Z,33.10
2023-09-03T12:33:35.047Z,32.90
2023-09-03T12:36:15.087Z,32.70
2023-09-03T12:38:55.874Z,32.60
2023-09-03T12:41:24.684Z,32.60
2023-09-03T12:43:52.213Z,32.40
2023-09-03T12:46:19.309Z,32.30
2023-09-03T12:48:46.712Z,32.30
2023-09-03T12:51:18.028Z,32.20
2023-09-03T12:53:46.171Z,32.10
2023-09-03T12:56:13.518Z,32.20
2023-09-03T12:58:41.052Z,32.20
2023-09-03T13:01:09.676Z,32.00
2023-09-03T13:03:36.972Z,32.00
2023-09-03T13:06:04.485Z,32.00
2023-09-03T13:08:33.390Z,32.00
2023-09-03T13:11:01.602Z,32.10
2023-09-03T13:13:29.396Z,32.20
2023-09-03T13:15:57.350Z,32.30
2023-09-03T13:18:24.389Z,32.40
2023-09-03T13:20:51.328Z,32.60
2023-09-03T13:23:18.320Z,32.60
2023-09-03T13:25:45.234Z,32.50
2023-09-03T13:28:13.442Z,32.50
2023-09-03T13:30:47.386Z,32.50
2023-09-03T13:33:21.068Z,32.50
2023-09-03T13:35:55.341Z,32.40
2023-09-03T13:38:23.004Z,32.40
2023-09-03T13:40:51.600Z,32.50
2023-09-03T13:43:22.612Z,32.60
2023-09-03T13:46:01.808Z,32.60
2023-09-03T13:48:29.598Z,32.60
2023-09-03T13:50:57.101Z,32.60
2023-09-03T13:53:24.755Z,32.50
2023-09-03T13:55:52.091Z,32.30
2023-09-03T13:58:19.406Z,32.20
2023-09-03T14:00:46.879Z,32.10
2023-09-03T14:03:13.940Z,31.90
2023-09-03T14:05:41.398Z,31.80
2023-09-03T14:08:08.438Z,31.70
2023-09-03T14:10:35.426Z,31.40
2023-09-03T14:13:02.443Z,31.20
2023-09-03T14:15:32.328Z,31.10
2023-09-03T14:17:59.338Z,30.90
2023-09-03T14:20:26.277Z,30.90
2023-09-03T14:22:54.537Z,30.80
2023-09-03T14:25:23.287Z,30.70
2023-09-03T14:27:50.602Z,30.50
2023-09-03T14:30:17.678Z,30.40
2023-09-03T14:32:44.623Z,30.40
2023-09-03T14:35:11.704Z,30.30
2023-09-03T14:37:38.658Z,30.20
2023-09-03T14:40:06.991Z,30.00
2023-09-03T14:42:33.920Z,29.70
2023-09-03T14:45:00.871Z,29.50
2023-09-03T14:47:27.977Z,29.50
2023-09-03T14:49:55.081Z,29.60
2023-09-03T14:52:22.019Z,29.50
2023-09-03T14:54:48.873Z,29.50
2023-09-03T14:57:15.973Z,29.40
2023-09-03T14:59:42.854Z,29.20
2023-09-03T15:02:09.825Z,29.10
2023-09-03T15:04:37.631Z,29.00
2023-09-03T15:07:04.650Z,28.80
2023-09-03T15:09:31.553Z,28.70
2023-09-03T15:11:58.442Z,28.50
2023-09-03T15:14:25.387Z,28.40
2023-09-03T15:16:52.222Z,28.40
2023-09-03T15:19:21.223Z,28.40
2023-09-03T15:21:49.711Z,28.40
2023-09-03T15:24:16.684Z,28.20
2023-09-03T15:26:46.027Z,28.10
2023-09-03T15:29:12.989Z,28.00
2023-09-03T15:31:39.926Z,27.80
2023-09-03T15:34:09.956Z,27.60
2023-09-03T15:36:36.881Z,27.40
2023-09-03T15:39:03.981Z,27.30
2023-09-03T15:41:31.041Z,27.20
2023-09-03T15:44:02.196Z,27.10
2023-09-03T15:46:29.351Z,26.90
2023-09-03T15:48:56.470Z,26.80
2023-09-03T15:51:23.319Z,26.60
2023-09-03T15:53:50.143Z,26.50
2023-09-03T15:56:17.033Z,26.40
2023-09-03T15:58:44.005Z,26.30
2023-09-03T16:01:13.251Z,26.20
2023-09-03T16:03:40.297Z,26.10
2023-09-03T16:06:07.623Z,26.00
2023-09-03T16:08:34.997Z,25.90
2023-09-03T16:11:06.303Z,25.80
2023-09-03T16:13:33.158Z,25.70
2023-09-03T16:16:00.133Z,25.60
2023-09-03T16:18:27.195Z,25.50
2023-09-03T16:20:54.122Z,25.40
2023-09-03T16:23:21.040Z,25.20
2023-09-03T16:25:48.087Z,25.20
2023-09-03T16:28:15.024Z,25.10
2023-09-03T16:30:42.096Z,25.00
2023-09-03T16:33:09.116Z,24.90
2023-09-03T16:35:36.436Z,24.80
2023-09-03T16:38:04.063Z,24.70
2023-09-03T16:40:32.064Z,24.60
2023-09-03T16:42:59.012Z,24.50
2023-09-03T16:45:25.964Z,24.30
2023-09-03T16:47:52.838Z,24.30
2023-09-03T16:50:19.939Z,24.10
2023-09-03T16:52:47.049Z,24.00
2023-09-03T16:55:14.040Z,24.00
2023-09-03T16:57:40.881Z,23.80
2023-09-03T17:00:09.955Z,23.70
2023-09-03T17:02:37.012Z,23.60
2023-09-03T17:05:04.718Z,23.50
2023-09-03T17:07:32.274Z,23.40
2023-09-03T17:09:59.213Z,23.20
2023-09-03T17:12:26.084Z,23.10
2023-09-03T17:14:52.985Z,23.00
2023-09-03T17:17:19.978Z,22.90
2023-09-03T17:19:46.919Z,22.70
2023-09-03T17:22:13.832Z,22.60
2023-09-03T17:24:40.715Z,22.50
2023-09-03T17:27:07.749Z,22.40
2023-09-03T17:29:34.803Z,22.20
2023-09-03T17:32:02.283Z,22.10
2023-09-03T17:34:29.515Z,22.00
2023-09-03T17:36:56.542Z,21.80
2023-09-03T17:39:23.446Z,21.70
2023-09-03T17:41:50.651Z,21.50
2023-09-03T17:44:17.492Z,21.40
2023-09-03T17:46:44.758Z,21.30
2023-09-03T17:49:11.799Z,21.10
2023-09-03T17:51:38.750Z,21.00
2023-09-03T17:54:05.734Z,20.90
2023-09-03T17:56:32.774Z,20.70
2023-09-03T17:58:59.640Z,20.60
2023-09-03T18:01:26.536Z,20.40
2023-09-03T18:03:53.490Z,20.30
2023-09-03T18:06:20.472Z,20.10
2023-09-03T18:08:47.474Z,20.00
2023-09-03T18:11:16.143Z,19.90
2023-09-03T18:13:45.495Z,19.80
2023-09-03T18:16:15.193Z,19.70
2023-09-03T18:18:45.134Z,19.50
2023-09-03T18:21:15.577Z,19.50
2023-09-03T18:23:44.458Z,19.40
2023-09-03T18:26:11.364Z,19.30
2023-09-03T18:28:38.297Z,19.10
2023-09-03T18:31:05.813Z,19.10
2023-09-03T18:33:32.951Z,19.00
2023-09-03T18:35:59.914Z,18.90
2023-09-03T18:38:26.792Z,18.80
2023-09-03T18:40:53.738Z,18.70
2023-09-03T18:43:20.736Z,18.70
2023-09-03T18:45:47.801Z,18.60
2023-09-03T18:48:15.503Z,18.60
2023-09-03T18:50:42.466Z,18.50
2023-09-03T18:53:09.421Z,18.40
2023-09-03T18:55:37.655Z,18.30
2023-09-03T18:58:05.866Z,18.20
2023-09-03T19:00:33.206Z,18.10
2023-09-03T19:03:00.212Z,18.00
2023-09-03T19:05:27.150Z,17.90
2023-09-03T19:07:54.108Z,17.90
2023-09-03T19:10:21.339Z,17.80
2023-09-03T19:12:48.250Z,17.80
2023-09-03T19:15:15.186Z,17.70
2023-09-03T19:17:42.236Z,17.60
2023-09-03T19:20:09.532Z,17.60
2023-09-03T19:22:37.055Z,17.50
2023-09-03T19:25:04.367Z,17.40
2023-09-03T19:27:31.325Z,17.30
2023-09-03T19:29:59.716Z,17.30
2023-09-03T19:32:29.565Z,17.20
2023-09-03T19:34:56.484Z,17.10
2023-09-03T19:37:23.477Z,17.10
2023-09-03T19:39:50.458Z,17.00
2023-09-03T19:42:17.406Z,16.90
2023-09-03T19:44:44.355Z,16.80
2023-09-03T19:47:11.279Z,16.80
2023-09-03T19:49:38.208Z,16.70
2023-09-03T19:52:05.637Z,16.60
2023-09-03T19:54:32.581Z,16.60
2023-09-03T19:56:59.674Z,16.50
2023-09-03T19:59:26.868Z,16.40
2023-09-03T20:01:53.780Z,16.40
2023-09-03T20:04:20.666Z,16.30
2023-09-03T20:06:47.588Z,16.30
2023-09-03T20:09:14.562Z,16.20
2023-09-03T20:11:41.443Z,16.20
2023-09-03T20:14:10.637Z,16.20
2023-09-03T20:16:37.583Z,16.10
2023-09-03T20:19:04.588Z,16.10
2023-09-03T20:21:32.087Z,16.00
2023-09-03T20:23:59.169Z,16.00
2023-09-03T20:26:27.336Z,15.90
2023-09-03T20:28:54.508Z,15.90
2023-09-03T20:31:21.541Z,15.80
2023-09-03T20:33:48.550Z,15.70
2023-09-03T20:36:15.704Z,15.70
2023-09-03T20:38:43.156Z,15.70
2023-09-03T20:41:10.418Z,15.60
2023-09-03T20:43:37.594Z,15.60
2023-09-03T20:46:04.707Z,15.50
2023-09-03T20:48:31.690Z,15.50
2023-09-03T20:51:02.639Z,15.40
2023-09-03T20:53:30.182Z,15.40
2023-09-03T20:55:57.259Z,15.40
2023-09-03T20:58:25.472Z,15.30
2023-09-03T21:00:53.476Z,15.30
2023-09-03T21:03:20.646Z,15.30
2023-09-03T21:05:51.728Z,15.30
2023-09-03T21:08:20.104Z,15.30
2023-09-03T21:11:00.952Z,15.30
2023-09-03T21:13:29.081Z,15.30
2023-09-03T21:15:57.410Z,15.30
2023-09-03T21:18:26.021Z,15.20
2023-09-03T21:20:54.983Z,15.20
2023-09-03T21:23:22.692Z,15.20
2023-09-03T21:25:50.205Z,15.10
2023-09-03T21:28:17.151Z,15.10
2023-09-03T21:30:44.048Z,15.00
2023-09-03T21:33:10.944Z,15.00
2023-09-03T21:35:41.579Z,14.90
2023-09-03T21:38:08.529Z,14.90
2023-09-03T21:40:36.255Z,14.90
2023-09-03T21:43:04.334Z,14.80
2023-09-03T21:45:31.377Z,14.70
2023-09-03T21:47:59.237Z,14.70
2023-09-03T21:50:26.379Z,14.60
2023-09-03T21:52:53.267Z,14.60
2023-09-03T21:55:20.354Z,14.50
2023-09-03T21:57:47.419Z,14.40
2023-09-03T22:00:14.504Z,14.40
2023-09-03T22:02:43.674Z,14.30
2023-09-03T22:05:10.879Z,14.30
2023-09-03T22:07:37.790Z,14.20
2023-09-03T22:10:05.180Z,14.20
2023-09-03T22:12:32.235Z,14.10
2023-09-03T22:14:59.193Z,14.10
2023-09-03T22:17:26.119Z,14.00
2023-09-03T22:19:53.011Z,14.00
2023-09-03T22:22:19.963Z,14.00
2023-09-03T22:24:46.899Z,13.90
2023-09-03T22:27:13.861Z,13.90
2023-09-03T22:29:40.990Z,13.90
2023-09-03T22:32:07.925Z,13.80
2023-09-03T22:34:34.897Z,13.80
2023-09-03T22:37:01.727Z,13.90
2023-09-03T22:39:30.570Z,13.90
2023-09-03T22:41:58.866Z,13.90
2023-09-03T22:44:25.964Z,13.80
2023-09-03T22:46:52.918Z,13.80
2023-09-03T22:49:20.002Z,13.70
2023-09-03T22:51:46.838Z,13.60
2023-09-03T22:54:13.810Z,13.50
2023-09-03T22:56:40.707Z,13.50
2023-09-03T22:59:07.583Z,13.40
2023-09-03T23:01:34.564Z,13.40
2023-09-03T23:04:02.704Z,13.40
2023-09-03T23:06:29.746Z,13.30
2023-09-03T23:08:56.651Z,13.30
2023-09-03T23:11:23.641Z,13.30
2023-09-03T23:13:50.579Z,13.30
2023-09-03T23:16:17.472Z,13.30
2023-09-03T23:18:45.017Z,13.20
2023-09-03T23:21:13.459Z,13.20
2023-09-03T23:23:40.697Z,13.10
2023-09-03T23:26:08.407Z,13.10
2023-09-03T23:28:35.257Z,13.10
2023-09-03T23:31:02.314Z,13.00
2023-09-03T23:33:29.358Z,13.00
2023-09-03T23:35:56.363Z,13.00
2023-09-03T23:38:23.689Z,13.00
2023-09-03T23:40:51.019Z,13.00
2023-09-03T23:43:17.905Z,12.90
2023-09-03T23:45:47.880Z,13.00
2023-09-03T23:48:15.066Z,12.90
2023-09-03T23:50:42.079Z,13.00
2023-09-03T23:53:09.041Z,13.00
2023-09-03T23:55:36.020Z,13.00
2023-09-03T23:58:03.126Z,13.00
